sensor_id;sensor_type;location;lat;lon;timestamp;pressure;altitude;pressure_sealevel;temperature;humidity
68634;BME280;55625;47.072;22.192;2024-03-29T00:01:26;98523.59;;;14.15;72.08
68634;BME280;55625;47.072;22.192;2024-03-29T00:03:52;98523.19;;;14.33;71.97
68634;BME280;55625;47.072;22.192;2024-03-29T00:06:20;98536.56;;;14.16;72.09
68634;BME280;55625;47.072;22.192;2024-03-29T00:08:46;98513.53;;;14.25;71.29
68634;BME280;55625;47.072;22.192;2024-03-29T00:11:12;98533.75;;;14.21;72.55
68634;BME280;55625;47.072;22.192;2024-03-29T00:13:39;98527.25;;;14.21;71.67
68634;BME280;55625;47.072;22.192;2024-03-29T00:16:06;98548.31;;;14.29;71.47
68634;BME280;55625;47.072;22.192;2024-03-29T00:18:32;98548.13;;;14.38;70.32
68634;BME280;55625;47.072;22.192;2024-03-29T00:20:59;98550.66;;;14.30;71.70
68634;BME280;55625;47.072;22.192;2024-03-29T00:23:25;98549.09;;;14.29;72.11
68634;BME280;55625;47.072;22.192;2024-03-29T00:25:50;98566.22;;;14.29;70.75
68634;BME280;55625;47.072;22.192;2024-03-29T00:28:17;98573.13;;;14.43;71.17
68634;BME280;55625;47.072;22.192;2024-03-29T00:30:43;98573.50;;;14.30;70.93
68634;BME280;55625;47.072;22.192;2024-03-29T00:33:09;98609.75;;;14.50;69.39
68634;BME280;55625;47.072;22.192;2024-03-29T00:35:35;98611.13;;;14.60;69.45
68634;BME280;55625;47.072;22.192;2024-03-29T00:38:01;98610.34;;;14.60;71.08
68634;BME280;55625;47.072;22.192;2024-03-29T00:40:27;98626.38;;;14.52;71.01
68634;BME280;55625;47.072;22.192;2024-03-29T00:42:53;98646.31;;;14.46;71.68
68634;BME280;55625;47.072;22.192;2024-03-29T00:45:20;98650.22;;;14.49;71.12
68634;BME280;55625;47.072;22.192;2024-03-29T00:47:46;98672.28;;;14.48;69.65
68634;BME280;55625;47.072;22.192;2024-03-29T00:50:12;98666.34;;;14.52;70.52
68634;BME280;55625;47.072;22.192;2024-03-29T00:52:38;98682.69;;;14.51;71.98
68634;BME280;55625;47.072;22.192;2024-03-29T00:55:04;98703.69;;;14.48;71.97
68634;BME280;55625;47.072;22.192;2024-03-29T00:57:31;98713.00;;;14.43;73.03
68634;BME280;55625;47.072;22.192;2024-03-29T00:59:57;98765.94;;;14.24;76.35
68634;BME280;55625;47.072;22.192;2024-03-29T01:02:23;98779.03;;;13.70;80.27
68634;BME280;55625;47.072;22.192;2024-03-29T01:05:26;98808.66;;;13.07;83.53
68634;BME280;55625;47.072;22.192;2024-03-29T01:07:52;98818.41;;;12.71;85.02
68634;BME280;55625;47.072;22.192;2024-03-29T01:10:18;98830.06;;;12.44;88.40
68634;BME280;55625;47.072;22.192;2024-03-29T01:12:44;98843.53;;;12.20;93.87
68634;BME280;55625;47.072;22.192;2024-03-29T01:15:12;98831.78;;;11.88;97.78
68634;BME280;55625;47.072;22.192;2024-03-29T01:17:38;98843.75;;;11.68;99.63
68634;BME280;55625;47.072;22.192;2024-03-29T01:20:04;98847.16;;;11.48;100.00
68634;BME280;55625;47.072;22.192;2024-03-29T01:22:30;98850.72;;;11.25;100.00
68634;BME280;55625;47.072;22.192;2024-03-29T01:24:56;98867.06;;;11.06;100.00
68634;BME280;55625;47.072;22.192;2024-03-29T01:27:23;98877.31;;;10.95;100.00
68634;BME280;55625;47.072;22.192;2024-03-29T01:29:50;98894.72;;;10.78;100.00
68634;BME280;55625;47.072;22.192;2024-03-29T01:32:16;98862.00;;;10.41;100.00
68634;BME280;55625;47.072;22.192;2024-03-29T01:34:42;98850.78;;;10.28;100.00
68634;BME280;55625;47.072;22.192;2024-03-29T01:37:08;98858.66;;;10.33;100.00
68634;BME280;55625;47.072;22.192;2024-03-29T01:39:34;98847.94;;;10.19;100.00
68634;BME280;55625;47.072;22.192;2024-03-29T01:42:00;98835.81;;;10.27;100.00
68634;BME280;55625;47.072;22.192;2024-03-29T01:44:26;98842.75;;;10.36;100.00
68634;BME280;55625;47.072;22.192;2024-03-29T01:46:52;98853.31;;;10.35;100.00
68634;BME280;55625;47.072;22.192;2024-03-29T01:49:18;98850.66;;;10.41;100.00
68634;BME280;55625;47.072;22.192;2024-03-29T01:51:44;98843.06;;;10.47;100.00
68634;BME280;55625;47.072;22.192;2024-03-29T01:54:11;98849.81;;;10.40;100.00
68634;BME280;55625;47.072;22.192;2024-03-29T01:56:39;98867.50;;;10.26;100.00
68634;BME280;55625;47.072;22.192;2024-03-29T01:59:13;98866.38;;;10.33;100.00
68634;BME280;55625;47.072;22.192;2024-03-29T02:01:41;98889.38;;;10.25;100.00
68634;BME280;55625;47.072;22.192;2024-03-29T02:04:09;98881.63;;;10.17;100.00
68634;BME280;55625;47.072;22.192;2024-03-29T02:06:37;98888.75;;;10.21;100.00
68634;BME280;55625;47.072;22.192;2024-03-29T02:09:04;98930.34;;;10.34;100.00
68634;BME280;55625;47.072;22.192;2024-03-29T02:11:30;98929.09;;;10.25;99.14
68634;BME280;55625;47.072;22.192;2024-03-29T02:13:56;98969.06;;;10.18;100.00
68634;BME280;55625;47.072;22.192;2024-03-29T02:16:22;98985.28;;;10.18;100.00
68634;BME280;55625;47.072;22.192;2024-03-29T02:18:48;98985.72;;;10.07;100.00
68634;BME280;55625;47.072;22.192;2024-03-29T02:21:14;98986.97;;;10.06;100.00
68634;BME280;55625;47.072;22.192;2024-03-29T02:23:44;99002.88;;;10.04;100.00
68634;BME280;55625;47.072;22.192;2024-03-29T02:26:12;99004.13;;;9.93;100.00
68634;BME280;55625;47.072;22.192;2024-03-29T02:28:38;99005.03;;;9.90;100.00
68634;BME280;55625;47.072;22.192;2024-03-29T02:31:05;99028.81;;;9.84;100.00
68634;BME280;55625;47.072;22.192;2024-03-29T02:33:31;99040.13;;;9.84;100.00
68634;BME280;55625;47.072;22.192;2024-03-29T02:35:57;99047.63;;;9.78;100.00
68634;BME280;55625;47.072;22.192;2024-03-29T02:38:23;99044.81;;;9.78;100.00
68634;BME280;55625;47.072;22.192;2024-03-29T02:40:49;99055.13;;;9.62;100.00
68634;BME280;55625;47.072;22.192;2024-03-29T02:43:15;99069.16;;;9.66;100.00
68634;BME280;55625;47.072;22.192;2024-03-29T02:45:41;99086.56;;;9.55;99.39
68634;BME280;55625;47.072;22.192;2024-03-29T02:48:07;99108.56;;;9.51;100.00
68634;BME280;55625;47.072;22.192;2024-03-29T02:50:33;99122.75;;;9.51;99.65
68634;BME280;55625;47.072;22.192;2024-03-29T02:52:59;99136.22;;;9.47;99.69
68634;BME280;55625;47.072;22.192;2024-03-29T02:55:25;99136.47;;;9.40;100.00
68634;BME280;55625;47.072;22.192;2024-03-29T02:57:51;99157.56;;;9.39;97.40
68634;BME280;55625;47.072;22.192;2024-03-29T03:00:17;99178.91;;;9.31;98.16
68634;BME280;55625;47.072;22.192;2024-03-29T03:02:43;99184.81;;;9.24;98.54
68634;BME280;55625;47.072;22.192;2024-03-29T03:05:09;99184.25;;;9.16;98.37
68634;BME280;55625;47.072;22.192;2024-03-29T03:07:35;99198.53;;;9.13;98.46
68634;BME280;55625;47.072;22.192;2024-03-29T03:10:20;99219.50;;;9.02;100.00
68634;BME280;55625;47.072;22.192;2024-03-29T03:13:04;99226.31;;;8.92;100.00
68634;BME280;55625;47.072;22.192;2024-03-29T03:15:30;99233.91;;;8.83;100.00
68634;BME280;55625;47.072;22.192;2024-03-29T03:17:57;99250.06;;;8.82;99.94
68634;BME280;55625;47.072;22.192;2024-03-29T03:20:23;99253.03;;;8.79;100.00
68634;BME280;55625;47.072;22.192;2024-03-29T03:22:53;99261.88;;;8.68;100.00
68634;BME280;55625;47.072;22.192;2024-03-29T03:25:21;99283.31;;;8.53;100.00
68634;BME280;55625;47.072;22.192;2024-03-29T03:27:47;99272.81;;;8.53;100.00
68634;BME280;55625;47.072;22.192;2024-03-29T03:30:14;99285.47;;;8.49;100.00
68634;BME280;55625;47.072;22.192;2024-03-29T03:32:40;99286.25;;;8.36;100.00
68634;BME280;55625;47.072;22.192;2024-03-29T03:35:07;99295.97;;;8.35;100.00
68634;BME280;55625;47.072;22.192;2024-03-29T03:37:33;99300.41;;;8.36;100.00
68634;BME280;55625;47.072;22.192;2024-03-29T03:39:59;99318.00;;;8.28;100.00
68634;BME280;55625;47.072;22.192;2024-03-29T03:42:25;99325.53;;;8.18;100.00
68634;BME280;55625;47.072;22.192;2024-03-29T03:44:51;99339.84;;;8.11;100.00
68634;BME280;55625;47.072;22.192;2024-03-29T03:47:16;99341.47;;;7.96;100.00
68634;BME280;55625;47.072;22.192;2024-03-29T03:49:42;99341.88;;;7.82;100.00
68634;BME280;55625;47.072;22.192;2024-03-29T03:52:09;99345.25;;;7.60;100.00
68634;BME280;55625;47.072;22.192;2024-03-29T03:54:35;99353.22;;;7.49;100.00
68634;BME280;55625;47.072;22.192;2024-03-29T03:57:01;99342.81;;;7.46;100.00
68634;BME280;55625;47.072;22.192;2024-03-29T03:59:27;99357.00;;;7.42;100.00
68634;BME280;55625;47.072;22.192;2024-03-29T04:01:53;99355.16;;;7.36;100.00
68634;BME280;55625;47.072;22.192;2024-03-29T04:04:20;99365.72;;;7.32;100.00
68634;BME280;55625;47.072;22.192;2024-03-29T04:06:46;99367.03;;;7.27;100.00
68634;BME280;55625;47.072;22.192;2024-03-29T04:09:15;99367.56;;;7.22;100.00
68634;BME280;55625;47.072;22.192;2024-03-29T04:11:44;99375.78;;;7.16;100.00
68634;BME280;55625;47.072;22.192;2024-03-29T04:14:10;99382.38;;;7.10;100.00
68634;BME280;55625;47.072;22.192;2024-03-29T04:16:36;99381.59;;;7.09;100.00
68634;BME280;55625;47.072;22.192;2024-03-29T04:19:02;99392.00;;;7.12;100.00
68634;BME280;55625;47.072;22.192;2024-03-29T04:21:28;99386.94;;;7.04;100.00
68634;BME280;55625;47.072;22.192;2024-03-29T04:23:54;99384.19;;;7.00;100.00
68634;BME280;55625;47.072;22.192;2024-03-29T04:26:20;99391.66;;;7.10;100.00
68634;BME280;55625;47.072;22.192;2024-03-29T04:28:46;99391.13;;;7.15;100.00
68634;BME280;55625;47.072;22.192;2024-03-29T04:31:12;99409.28;;;7.14;100.00
68634;BME280;55625;47.072;22.192;2024-03-29T04:33:38;99415.28;;;7.33;100.00
68634;BME280;55625;47.072;22.192;2024-03-29T04:36:04;99424.72;;;7.26;100.00
68634;BME280;55625;47.072;22.192;2024-03-29T04:38:31;99421.31;;;7.35;100.00
68634;BME280;55625;47.072;22.192;2024-03-29T04:40:58;99429.78;;;7.35;100.00
68634;BME280;55625;47.072;22.192;2024-03-29T04:43:26;99445.41;;;7.39;100.00
68634;BME280;55625;47.072;22.192;2024-03-29T04:46:11;99448.94;;;7.43;100.00
68634;BME280;55625;47.072;22.192;2024-03-29T04:48:42;99449.72;;;7.44;100.00
68634;BME280;55625;47.072;22.192;2024-03-29T04:51:12;99449.56;;;7.51;100.00
68634;BME280;55625;47.072;22.192;2024-03-29T04:53:39;99458.22;;;7.60;100.00
68634;BME280;55625;47.072;22.192;2024-03-29T04:56:06;99461.31;;;7.66;100.00
68634;BME280;55625;47.072;22.192;2024-03-29T04:58:32;99463.09;;;7.76;100.00
68634;BME280;55625;47.072;22.192;2024-03-29T05:00:58;99464.13;;;7.82;100.00
68634;BME280;55625;47.072;22.192;2024-03-29T05:03:24;99468.13;;;8.01;100.00
68634;BME280;55625;47.072;22.192;2024-03-29T05:05:51;99477.47;;;8.14;100.00
68634;BME280;55625;47.072;22.192;2024-03-29T05:08:18;99484.41;;;8.26;100.00
68634;BME280;55625;47.072;22.192;2024-03-29T05:10:52;99494.59;;;8.39;100.00
68634;BME280;55625;47.072;22.192;2024-03-29T05:13:18;99507.66;;;8.50;99.81
68634;BME280;55625;47.072;22.192;2024-03-29T05:15:46;99511.78;;;8.61;98.92
68634;BME280;55625;47.072;22.192;2024-03-29T05:18:13;99514.69;;;8.87;98.65
68634;BME280;55625;47.072;22.192;2024-03-29T05:20:39;99523.28;;;9.12;97.86
68634;BME280;55625;47.072;22.192;2024-03-29T05:23:13;99525.38;;;9.37;96.67
68634;BME280;55625;47.072;22.192;2024-03-29T05:25:40;99532.56;;;9.54;95.61
68634;BME280;55625;47.072;22.192;2024-03-29T05:28:07;99536.75;;;9.75;95.13
68634;BME280;55625;47.072;22.192;2024-03-29T05:30:34;99524.88;;;9.93;94.12
68634;BME280;55625;47.072;22.192;2024-03-29T05:33:03;99514.63;;;10.08;92.88
68634;BME280;55625;47.072;22.192;2024-03-29T05:35:30;99512.50;;;10.12;93.00
68634;BME280;55625;47.072;22.192;2024-03-29T05:37:56;99514.75;;;10.17;93.18
68634;BME280;55625;47.072;22.192;2024-03-29T05:40:22;99533.25;;;10.22;92.95
68634;BME280;55625;47.072;22.192;2024-03-29T05:42:51;99532.22;;;10.29;91.52
68634;BME280;55625;47.072;22.192;2024-03-29T05:45:28;99538.69;;;10.29;91.71
68634;BME280;55625;47.072;22.192;2024-03-29T05:47:57;99541.53;;;10.42;92.52
68634;BME280;55625;47.072;22.192;2024-03-29T05:50:25;99548.19;;;10.48;92.06
68634;BME280;55625;47.072;22.192;2024-03-29T05:52:54;99564.06;;;10.58;92.95
68634;BME280;55625;47.072;22.192;2024-03-29T05:55:20;99563.00;;;10.65;91.88
68634;BME280;55625;47.072;22.192;2024-03-29T05:57:46;99558.22;;;10.74;91.73
68634;BME280;55625;47.072;22.192;2024-03-29T06:00:14;99559.97;;;10.94;92.23
68634;BME280;55625;47.072;22.192;2024-03-29T06:02:42;99548.31;;;11.13;91.92
68634;BME280;55625;47.072;22.192;2024-03-29T06:05:11;99554.88;;;11.32;90.19
68634;BME280;55625;47.072;22.192;2024-03-29T06:07:37;99559.06;;;11.40;88.81
68634;BME280;55625;47.072;22.192;2024-03-29T06:10:04;99562.69;;;11.41;87.78
68634;BME280;55625;47.072;22.192;2024-03-29T06:12:32;99565.72;;;11.46;88.27
68634;BME280;55625;47.072;22.192;2024-03-29T06:14:58;99564.16;;;11.45;86.60
68634;BME280;55625;47.072;22.192;2024-03-29T06:17:42;99567.19;;;11.51;86.14
68634;BME280;55625;47.072;22.192;2024-03-29T06:20:08;99568.28;;;11.54;84.78
68634;BME280;55625;47.072;22.192;2024-03-29T06:22:35;99561.06;;;11.62;82.26
68634;BME280;55625;47.072;22.192;2024-03-29T06:25:01;99570.06;;;11.82;79.70
68634;BME280;55625;47.072;22.192;2024-03-29T06:27:36;99569.44;;;11.78;81.27
68634;BME280;55625;47.072;22.192;2024-03-29T06:30:06;99566.63;;;11.87;79.84
68634;BME280;55625;47.072;22.192;2024-03-29T06:32:34;99566.72;;;12.05;81.79
68634;BME280;55625;47.072;22.192;2024-03-29T06:35:00;99564.59;;;12.28;82.34
68634;BME280;55625;47.072;22.192;2024-03-29T06:37:26;99578.22;;;12.42;81.71
68634;BME280;55625;47.072;22.192;2024-03-29T06:39:54;99572.69;;;12.48;81.27
68634;BME280;55625;47.072;22.192;2024-03-29T06:42:20;99573.84;;;12.68;79.81
68634;BME280;55625;47.072;22.192;2024-03-29T06:44:46;99565.66;;;12.89;78.65
68634;BME280;55625;47.072;22.192;2024-03-29T06:47:12;99571.19;;;13.11;77.90
68634;BME280;55625;47.072;22.192;2024-03-29T06:49:39;99569.97;;;13.21;75.83
68634;BME280;55625;47.072;22.192;2024-03-29T06:52:05;99559.66;;;13.32;77.34
68634;BME280;55625;47.072;22.192;2024-03-29T06:54:31;99561.91;;;13.19;75.46
68634;BME280;55625;47.072;22.192;2024-03-29T06:56:59;99554.56;;;13.09;77.22
68634;BME280;55625;47.072;22.192;2024-03-29T06:59:26;99550.78;;;13.40;76.22
68634;BME280;55625;47.072;22.192;2024-03-29T07:01:53;99547.44;;;13.59;75.80
68634;BME280;55625;47.072;22.192;2024-03-29T07:04:24;99563.06;;;13.82;76.46
68634;BME280;55625;47.072;22.192;2024-03-29T07:06:53;99567.00;;;13.85;74.62
68634;BME280;55625;47.072;22.192;2024-03-29T07:09:21;99567.97;;;13.82;74.69
68634;BME280;55625;47.072;22.192;2024-03-29T07:11:49;99584.78;;;13.80;75.06
68634;BME280;55625;47.072;22.192;2024-03-29T07:14:17;99587.31;;;13.78;73.24
68634;BME280;55625;47.072;22.192;2024-03-29T07:16:44;99583.00;;;13.91;71.68
68634;BME280;55625;47.072;22.192;2024-03-29T07:19:12;99589.69;;;14.21;73.21
68634;BME280;55625;47.072;22.192;2024-03-29T07:21:45;99598.25;;;14.21;70.51
68634;BME280;55625;47.072;22.192;2024-03-29T07:24:12;99600.59;;;14.32;71.47
68634;BME280;55625;47.072;22.192;2024-03-29T07:26:39;99606.28;;;14.41;70.73
68634;BME280;55625;47.072;22.192;2024-03-29T07:29:06;99600.25;;;14.39;68.60
68634;BME280;55625;47.072;22.192;2024-03-29T07:31:33;99594.34;;;14.52;68.91
68634;BME280;55625;47.072;22.192;2024-03-29T07:34:00;99598.31;;;14.54;68.96
68634;BME280;55625;47.072;22.192;2024-03-29T07:36:26;99594.72;;;14.69;65.42
68634;BME280;55625;47.072;22.192;2024-03-29T07:38:59;99602.13;;;14.99;67.33
68634;BME280;55625;47.072;22.192;2024-03-29T07:41:25;99607.25;;;14.95;68.06
68634;BME280;55625;47.072;22.192;2024-03-29T07:43:54;99602.75;;;15.03;66.00
68634;BME280;55625;47.072;22.192;2024-03-29T07:46:23;99604.13;;;15.32;65.22
68634;BME280;55625;47.072;22.192;2024-03-29T07:48:49;99612.47;;;15.20;65.10
68634;BME280;55625;47.072;22.192;2024-03-29T07:51:16;99619.28;;;14.99;63.63
68634;BME280;55625;47.072;22.192;2024-03-29T07:53:42;99617.44;;;15.35;66.18
68634;BME280;55625;47.072;22.192;2024-03-29T07:56:08;99620.00;;;15.33;62.97
68634;BME280;55625;47.072;22.192;2024-03-29T07:58:34;99609.50;;;15.15;60.70
68634;BME280;55625;47.072;22.192;2024-03-29T08:01:00;99604.84;;;15.41;63.69
68634;BME280;55625;47.072;22.192;2024-03-29T08:03:26;99606.81;;;15.35;63.16
68634;BME280;55625;47.072;22.192;2024-03-29T08:06:02;99595.53;;;15.70;61.96
68634;BME280;55625;47.072;22.192;2024-03-29T08:08:35;99606.28;;;15.75;60.79
68634;BME280;55625;47.072;22.192;2024-03-29T08:11:01;99610.44;;;15.74;59.73
68634;BME280;55625;47.072;22.192;2024-03-29T08:13:27;99619.25;;;15.47;61.36
68634;BME280;55625;47.072;22.192;2024-03-29T08:16:01;99621.69;;;15.63;60.03
68634;BME280;55625;47.072;22.192;2024-03-29T08:18:28;99618.44;;;15.85;58.57
68634;BME280;55625;47.072;22.192;2024-03-29T08:20:54;99633.34;;;16.04;60.64
68634;BME280;55625;47.072;22.192;2024-03-29T08:23:26;99620.09;;;16.36;57.37
68634;BME280;55625;47.072;22.192;2024-03-29T08:25:52;99620.66;;;16.55;56.91
68634;BME280;55625;47.072;22.192;2024-03-29T08:28:24;99615.25;;;16.77;57.30
68634;BME280;55625;47.072;22.192;2024-03-29T08:31:02;99616.34;;;16.80;56.51
68634;BME280;55625;47.072;22.192;2024-03-29T08:33:28;99615.22;;;16.92;55.22
68634;BME280;55625;47.072;22.192;2024-03-29T08:35:56;99612.56;;;17.08;56.40
68634;BME280;55625;47.072;22.192;2024-03-29T08:38:22;99604.84;;;17.15;55.36
68634;BME280;55625;47.072;22.192;2024-03-29T08:40:49;99604.69;;;17.24;54.98
68634;BME280;55625;47.072;22.192;2024-03-29T08:43:16;99602.84;;;17.21;53.66
68634;BME280;55625;47.072;22.192;2024-03-29T08:45:45;99608.47;;;17.35;55.14
68634;BME280;55625;47.072;22.192;2024-03-29T08:48:11;99603.50;;;17.77;55.09
68634;BME280;55625;47.072;22.192;2024-03-29T08:50:37;99621.34;;;17.66;54.82
68634;BME280;55625;47.072;22.192;2024-03-29T08:53:04;99625.63;;;17.50;50.59
68634;BME280;55625;47.072;22.192;2024-03-29T08:55:34;99624.63;;;17.33;51.94
68634;BME280;55625;47.072;22.192;2024-03-29T08:58:02;99631.72;;;17.37;52.49
68634;BME280;55625;47.072;22.192;2024-03-29T09:00:30;99632.25;;;17.62;51.80
68634;BME280;55625;47.072;22.192;2024-03-29T09:02:56;99638.91;;;17.94;52.42
68634;BME280;55625;47.072;22.192;2024-03-29T09:05:23;99644.81;;;17.85;49.25
68634;BME280;55625;47.072;22.192;2024-03-29T09:07:49;99652.69;;;17.90;51.06
68634;BME280;55625;47.072;22.192;2024-03-29T09:10:16;99648.91;;;18.04;50.91
68634;BME280;55625;47.072;22.192;2024-03-29T09:12:43;99652.97;;;17.92;51.79
68634;BME280;55625;47.072;22.192;2024-03-29T09:15:09;99654.78;;;18.15;51.66
68634;BME280;55625;47.072;22.192;2024-03-29T09:17:48;99661.03;;;18.40;49.30
68634;BME280;55625;47.072;22.192;2024-03-29T09:20:15;99654.56;;;18.50;49.31
68634;BME280;55625;47.072;22.192;2024-03-29T09:22:41;99645.03;;;18.65;50.62
68634;BME280;55625;47.072;22.192;2024-03-29T09:25:08;99648.88;;;18.61;48.26
68634;BME280;55625;47.072;22.192;2024-03-29T09:27:39;99665.06;;;18.59;49.52
68634;BME280;55625;47.072;22.192;2024-03-29T09:30:11;99653.31;;;18.57;49.68
68634;BME280;55625;47.072;22.192;2024-03-29T09:32:38;99658.34;;;18.62;46.88
68634;BME280;55625;47.072;22.192;2024-03-29T09:35:04;99646.22;;;18.52;48.38
68634;BME280;55625;47.072;22.192;2024-03-29T09:37:30;99651.38;;;18.74;47.93
68634;BME280;55625;47.072;22.192;2024-03-29T09:40:03;99646.72;;;18.82;47.19
68634;BME280;55625;47.072;22.192;2024-03-29T09:42:32;99655.63;;;18.84;47.41
68634;BME280;55625;47.072;22.192;2024-03-29T09:45:02;99652.91;;;19.07;47.75
68634;BME280;55625;47.072;22.192;2024-03-29T09:47:31;99644.44;;;18.98;45.44
68634;BME280;55625;47.072;22.192;2024-03-29T09:50:02;99649.41;;;18.97;47.07
68634;BME280;55625;47.072;22.192;2024-03-29T09:52:33;99654.19;;;19.06;46.91
68634;BME280;55625;47.072;22.192;2024-03-29T09:55:00;99644.53;;;19.09;46.54
68634;BME280;55625;47.072;22.192;2024-03-29T09:57:27;99639.84;;;19.11;47.71
68634;BME280;55625;47.072;22.192;2024-03-29T09:59:57;99643.81;;;19.19;45.25
68634;BME280;55625;47.072;22.192;2024-03-29T10:02:29;99644.38;;;19.29;43.02
68634;BME280;55625;47.072;22.192;2024-03-29T10:04:58;99641.22;;;19.27;44.92
68634;BME280;55625;47.072;22.192;2024-03-29T10:07:30;99641.81;;;19.42;42.41
68634;BME280;55625;47.072;22.192;2024-03-29T10:09:59;99640.28;;;19.52;41.40
68634;BME280;55625;47.072;22.192;2024-03-29T10:12:28;99638.69;;;19.51;44.27
68634;BME280;55625;47.072;22.192;2024-03-29T10:14:54;99636.34;;;19.50;44.26
68634;BME280;55625;47.072;22.192;2024-03-29T10:17:35;99625.97;;;19.64;43.05
68634;BME280;55625;47.072;22.192;2024-03-29T10:20:04;99611.56;;;19.64;41.84
68634;BME280;55625;47.072;22.192;2024-03-29T10:22:40;99608.44;;;19.62;42.43
68634;BME280;55625;47.072;22.192;2024-03-29T10:25:07;99606.84;;;19.61;39.97
68634;BME280;55625;47.072;22.192;2024-03-29T10:27:33;99595.13;;;19.98;40.83
68634;BME280;55625;47.072;22.192;2024-03-29T10:29:59;99596.97;;;20.06;40.56
68634;BME280;55625;47.072;22.192;2024-03-29T10:32:25;99591.47;;;20.20;39.30
68634;BME280;55625;47.072;22.192;2024-03-29T10:34:51;99594.34;;;20.14;37.51
68634;BME280;55625;47.072;22.192;2024-03-29T10:37:19;99587.28;;;20.15;37.79
68634;BME280;55625;47.072;22.192;2024-03-29T10:39:52;99581.78;;;20.45;40.02
68634;BME280;55625;47.072;22.192;2024-03-29T10:42:30;99578.91;;;20.62;41.08
68634;BME280;55625;47.072;22.192;2024-03-29T10:44:59;99583.88;;;20.61;39.37
68634;BME280;55625;47.072;22.192;2024-03-29T10:47:26;99585.47;;;20.51;39.31
68634;BME280;55625;47.072;22.192;2024-03-29T10:49:53;99582.03;;;20.64;39.36
68634;BME280;55625;47.072;22.192;2024-03-29T10:52:25;99582.59;;;20.57;40.58
68634;BME280;55625;47.072;22.192;2024-03-29T10:54:53;99572.31;;;20.72;40.36
68634;BME280;55625;47.072;22.192;2024-03-29T10:57:26;99576.78;;;20.73;39.04
68634;BME280;55625;47.072;22.192;2024-03-29T11:05:30;99557.34;;;20.85;39.91
68634;BME280;55625;47.072;22.192;2024-03-29T11:07:58;99556.19;;;21.11;39.07
68634;BME280;55625;47.072;22.192;2024-03-29T11:10:41;99572.19;;;21.17;39.37
68634;BME280;55625;47.072;22.192;2024-03-29T11:13:53;99560.75;;;20.84;39.34
68634;BME280;55625;47.072;22.192;2024-03-29T11:16:19;99547.66;;;20.71;41.03
68634;BME280;55625;47.072;22.192;2024-03-29T11:18:47;99549.56;;;20.58;40.51
68634;BME280;55625;47.072;22.192;2024-03-29T11:21:15;99544.94;;;21.01;41.32
68634;BME280;55625;47.072;22.192;2024-03-29T11:23:50;99548.94;;;20.87;40.46
68634;BME280;55625;47.072;22.192;2024-03-29T11:26:17;99546.66;;;20.63;41.37
68634;BME280;55625;47.072;22.192;2024-03-29T11:28:49;99541.69;;;20.47;40.36
68634;BME280;55625;47.072;22.192;2024-03-29T11:31:16;99544.56;;;20.47;39.64
68634;BME280;55625;47.072;22.192;2024-03-29T11:36:24;99545.56;;;20.77;40.73
68634;BME280;55625;47.072;22.192;2024-03-29T11:38:57;99535.31;;;20.88;40.60
68634;BME280;55625;47.072;22.192;2024-03-29T11:41:27;99533.22;;;20.88;40.94
68634;BME280;55625;47.072;22.192;2024-03-29T11:43:56;99538.41;;;20.95;41.07
68634;BME280;55625;47.072;22.192;2024-03-29T11:46:24;99538.66;;;21.03;40.46
68634;BME280;55625;47.072;22.192;2024-03-29T11:48:51;99535.44;;;21.23;38.92
68634;BME280;55625;47.072;22.192;2024-03-29T11:51:22;99530.81;;;20.98;38.53
68634;BME280;55625;47.072;22.192;2024-03-29T11:53:50;99543.13;;;20.98;41.65
68634;BME280;55625;47.072;22.192;2024-03-29T11:56:17;99536.31;;;20.96;41.70
68634;BME280;55625;47.072;22.192;2024-03-29T11:58:43;99534.28;;;20.85;39.64
68634;BME280;55625;47.072;22.192;2024-03-29T12:01:10;99535.06;;;20.86;40.68
68634;BME280;55625;47.072;22.192;2024-03-29T12:03:38;99541.00;;;21.04;38.99
68634;BME280;55625;47.072;22.192;2024-03-29T12:06:08;99547.66;;;20.83;40.81
68634;BME280;55625;47.072;22.192;2024-03-29T12:08:43;99540.91;;;20.52;40.67
68634;BME280;55625;47.072;22.192;2024-03-29T12:11:10;99544.31;;;20.51;40.53
68634;BME280;55625;47.072;22.192;2024-03-29T12:13:36;99543.00;;;20.46;40.98
68634;BME280;55625;47.072;22.192;2024-03-29T12:16:02;99526.75;;;20.54;40.78
68634;BME280;55625;47.072;22.192;2024-03-29T12:18:33;99530.00;;;21.03;40.97
68634;BME280;55625;47.072;22.192;2024-03-29T12:20:59;99534.38;;;21.21;39.96
68634;BME280;55625;47.072;22.192;2024-03-29T12:23:25;99528.59;;;21.26;40.00
68634;BME280;55625;47.072;22.192;2024-03-29T12:25:56;99526.28;;;21.14;39.64
68634;BME280;55625;47.072;22.192;2024-03-29T12:28:24;99513.97;;;21.13;40.25
68634;BME280;55625;47.072;22.192;2024-03-29T12:30:51;99525.03;;;20.98;41.02
68634;BME280;55625;47.072;22.192;2024-03-29T12:33:20;99517.69;;;20.97;41.99
68634;BME280;55625;47.072;22.192;2024-03-29T12:35:49;99516.44;;;20.81;41.41
68634;BME280;55625;47.072;22.192;2024-03-29T12:38:18;99517.25;;;20.82;42.51
68634;BME280;55625;47.072;22.192;2024-03-29T12:40:49;99516.97;;;20.80;42.12
68634;BME280;55625;47.072;22.192;2024-03-29T12:43:21;99507.72;;;20.98;41.17
68634;BME280;55625;47.072;22.192;2024-03-29T12:45:48;99506.78;;;20.67;42.11
68634;BME280;55625;47.072;22.192;2024-03-29T12:48:20;99500.22;;;20.67;42.71
68634;BME280;55625;47.072;22.192;2024-03-29T12:50:49;99502.63;;;20.46;42.59
68634;BME280;55625;47.072;22.192;2024-03-29T12:53:16;99509.22;;;20.24;43.52
68634;BME280;55625;47.072;22.192;2024-03-29T12:55:47;99502.91;;;20.54;43.35
68634;BME280;55625;47.072;22.192;2024-03-29T12:58:15;99502.16;;;20.25;44.42
68634;BME280;55625;47.072;22.192;2024-03-29T13:00:42;99499.25;;;20.31;45.08
68634;BME280;55625;47.072;22.192;2024-03-29T13:03:09;99484.84;;;20.42;43.67